Skiathos Island, Greece

3:01 AM EEST on September 20, 2014 (GMT +0300)
Skopelos Greece | Change Station
CLOSE
Current Station
Personal Weather Station
Location: Ελλάδα,
Elevation: 259 ft
Nearby Weather Stations

Elev 259 ft 39.13 °N, 23.72 °E | Updated 13 seconds ago

Clear
Clear
66.0 °F
Feels Like 66.0 °F
N
0.3
Wind Variable Wind from SSW
Gusts 1.6 mph

Today
High -- | Low -- °F
--% Chance of Precip.
Yesterday
High -- | Low -- °F
Precip. -- in
7:11 AM 7:26 PM
Waning Crescent, 16% visible
Pressure 30.15 in
Visibility -9999.0 miles
Clouds
Dew Point 61 °F
Humidity 84%
Rainfall 0.00 in
Snow Depth Not available.
UV 1.0 out of 12
Pollen Not available.
Air Quality Not available.
Flu Activity Not available.
METAR LGBL 192250Z 25003KT CAVOK 17/13 Q1021 NOSIG

More Conditions Fewer Conditions

Pressure 30.15 in
Visibility -9999.0 miles
Clouds
Dew Point 61 °F
Humidity 84%
Rainfall 0.00 in
Snow Depth Not available.
UV 1.0 out of 12
Pollen Not available.
Air Quality Not available.
Flu Activity Not available.
METAR LGBL 192250Z 25003KT CAVOK 17/13 Q1021 NOSIG

More Conditions Fewer Conditions

10-Day Weather Forecast

Almanac

Astronomy

Sep. 20, 2014 Rise Set
Actual Time 7:11 AM EEST 7:26 PM EEST
Civil Twilight 6:44 AM EEST 7:53 PM EEST
Nautical Twilight 6:13 AM EEST 8:24 PM EEST
Astronomical Twilight 5:41 AM EEST 8:56 PM EEST
Moon 3:34 AM EEST 5:18 PM EEST
Length of Visible Light 13h 08m
Length of Day
12h 15m
Tomorrow will be 2m 32s shorter.
Waning Crescent, 16% of the Moon is Illuminated
Sep 19
Waning Crescent
Sep 24
New
Oct 1
First Quarter
Oct 8
Full
Oct 15
Last Quarter

Yesterday's Extremes

Country Highs Country Lows

Community

WunderPhotos

Upload Photos

1,754,734 photos uploaded!

WunderBlogs® & News

Nearby

Snow Depth

Not available.

Earthquake Activity

City Distance Mag. Time & Date
No recent earthquake activity has been reported nearby.
Minimum magnitude displayed is 2.5.

Coastal Water Temperatures

Place Temperature
No Stations Reporting

Nearby Weather Stations